Time;durP1;ratioP1;P1;durP2;ratioP2;P2;SDS_P1;SDS_P2;PMS_P1;PMS_P2;Temp;Humidity;BMP_temperature;BMP_pressure;BME280_temperature;BME280_humidity;BME280_pressure;Samples;Min_cycle;Max_cycle;Signal;HPM_P1;HPM_P2
2022/08/25 08:01:57;;;;;;;7.28;4.22;;;;;;;24.23;49.17;101382.09;5279376;28;20398;-71
2022/08/25 08:04:28;;;;;;;11.20;3.78;;;;;;;24.30;49.57;101377.41;5286865;28;20029;-72
2022/08/25 08:07:00;;;;;;;7.57;3.97;;;;;;;24.42;49.23;101379.31;5288091;28;20036;-71
2022/08/25 08:09:31;;;;;;;12.00;5.15;;;;;;;24.47;49.28;101379.06;5268941;28;20372;-70
2022/08/25 08:12:04;;;;;;;6.43;3.80;;;;;;;24.61;49.18;101381.34;5300641;28;20042;-70
2022/08/25 08:14:35;;;;;;;10.75;3.97;;;;;;;24.73;49.66;101377.56;5289379;28;20028;-70
2022/08/25 08:17:09;;;;;;;5.30;3.90;;;;;;;24.84;48.69;101372.09;5279974;28;20170;-72
2022/08/25 08:19:40;;;;;;;9.10;4.22;;;;;;;24.87;48.12;101374.19;5279767;28;20356;-71
2022/08/25 08:22:15;;;;;;;7.75;4.07;;;;;;;25.01;48.13;101368.78;5265920;28;20028;-71
2022/08/25 08:24:47;;;;;;;7.22;3.42;;;;;;;25.09;46.77;101376.22;5270522;28;20029;-71
2022/08/25 08:27:18;;;;;;;7.07;3.90;;;;;;;25.25;46.99;101381.81;5299713;28;20027;-71
2022/08/25 08:29:52;;;;;;;9.32;4.88;;;;;;;25.26;47.12;101376.97;5292716;28;20032;-70
2022/08/25 08:32:23;;;;;;;9.47;3.67;;;;;;;25.32;47.10;101375.47;5279426;28;20096;-69
2022/08/25 08:34:55;;;;;;;12.57;4.85;;;;;;;25.44;47.00;101372.44;5279386;28;20179;-70
2022/08/25 08:37:26;;;;;;;6.32;4.05;;;;;;;25.49;47.68;101362.75;5278260;28;20383;-71
2022/08/25 08:40:00;;;;;;;6.65;4.00;;;;;;;25.62;47.35;101369.06;5279193;28;20371;-70
2022/08/25 08:43:01;;;;;;;7.07;3.38;;;;;;;25.69;46.95;101372.03;5283705;28;20036;-71
2022/08/25 08:45:47;;;;;;;4.70;3.80;;;;;;;25.79;45.78;101369.34;5300417;28;20028;-72
2022/08/25 08:48:31;;;;;;;10.38;3.60;;;;;;;25.86;46.29;101367.88;5295730;28;20345;-71
2022/08/25 08:51:22;;;;;;;9.35;3.63;;;;;;;25.99;45.68;101372.13;5273254;28;20044;-72
2022/08/25 08:53:58;;;;;;;6.25;3.75;;;;;;;26.17;44.99;101369.56;5292235;28;20185;-71
2022/08/25 08:56:45;;;;;;;5.13;3.30;;;;;;;26.22;45.50;101366.38;5286464;28;20422;-71
2022/08/25 08:59:24;;;;;;;12.75;5.00;;;;;;;26.25;45.40;101368.44;5289709;28;20093;-73
2022/08/25 09:02:01;;;;;;;4.13;3.40;;;;;;;26.34;44.94;101363.31;5275310;28;20368;-73
2022/08/25 09:04:43;;;;;;;7.05;3.50;;;;;;;26.40;44.78;101370.28;5278104;28;20387;-72
2022/08/25 09:07:30;;;;;;;6.80;3.53;;;;;;;26.44;45.36;101358.97;5278753;28;20053;-73
2022/08/25 09:10:03;;;;;;;22.67;14.65;;;;;;;26.71;44.81;101365.41;5277931;28;20054;-72
2022/08/25 09:13:03;;;;;;;6.93;4.07;;;;;;;26.76;44.28;101370.75;5268366;28;20028;-70
2022/08/25 09:19:07;;;;;;;6.50;3.78;;;;;;;26.97;43.50;101360.81;5243407;28;20459;-71
2022/08/25 09:21:53;;;;;;;7.57;3.40;;;;;;;27.00;42.82;101360.06;5244299;28;20033;-71
2022/08/25 09:24:27;;;;;;;5.32;3.38;;;;;;;27.14;43.22;101363.03;5255735;28;20364;-70
2022/08/25 09:27:13;;;;;;;6.28;3.75;;;;;;;27.31;42.64;101365.28;5260842;28;20468;-70
2022/08/25 09:30:08;;;;;;;6.68;3.00;;;;;;;27.39;42.09;101360.47;5262689;28;20028;-70
2022/08/25 09:32:46;;;;;;;10.98;3.65;;;;;;;27.44;42.19;101362.16;5260787;28;20037;-69
2022/08/25 09:35:24;;;;;;;5.50;3.00;;;;;;;27.46;40.15;101360.53;5264588;28;20021;-70
2022/08/25 09:38:05;;;;;;;8.30;3.65;;;;;;;27.53;40.07;101357.75;5263831;28;20519;-70
2022/08/25 09:40:43;;;;;;;8.73;3.00;;;;;;;27.68;41.10;101343.63;5248850;28;20029;-70
2022/08/25 09:43:30;;;;;;;5.05;2.97;;;;;;;27.69;39.62;101363.16;5246415;28;20021;-70
2022/08/25 09:46:26;;;;;;;3.92;2.92;;;;;;;27.83;39.09;101353.13;5263772;28;20028;-72
2022/08/25 09:49:09;;;;;;;;;;;;;;;27.81;39.79;101352.66;5258358;28;20029;-74
2022/08/25 09:51:41;;;;;;;4.53;2.40;;;;;;;27.88;38.35;101347.88;5260904;28;19917;-74
2022/08/25 09:54:12;;;;;;;6.80;3.13;;;;;;;27.89;37.61;101340.13;5263282;28;20025;-74
2022/08/25 09:57:33;;;;;;;9.00;2.97;;;;;;;28.10;37.13;101342.31;5263844;28;20056;-76
2022/08/25 10:00:20;;;;;;;3.67;2.75;;;;;;;28.10;35.62;101330.91;5260955;28;20090;-74
2022/08/25 10:03:18;;;;;;;4.82;2.70;;;;;;;28.22;37.32;101326.88;5263584;28;20051;-74
2022/08/25 10:06:13;;;;;;;5.35;2.85;;;;;;;28.23;35.91;101323.63;5259446;28;20021;-75
2022/08/25 10:08:44;;;;;;;4.03;2.78;;;;;;;28.32;36.50;101314.72;5242259;28;20026;-74
2022/08/25 10:11:41;;;;;;;4.13;2.60;;;;;;;28.52;36.40;101313.19;5250438;28;20033;-73
2022/08/25 10:14:25;;;;;;;5.28;2.88;;;;;;;28.52;36.84;101313.19;5262311;28;20287;-72
2022/08/25 10:17:13;;;;;;;8.50;2.83;;;;;;;28.61;36.68;101309.97;5253766;28;20021;-73
2022/08/25 10:19:45;;;;;;;7.95;4.85;;;;;;;28.61;36.23;101316.50;5242712;28;20041;-74
2022/08/25 10:22:23;;;;;;;5.70;3.92;;;;;;;28.96;35.41;101314.13;5241775;28;20022;-74
2022/08/25 10:24:54;;;;;;;4.63;3.00;;;;;;;28.90;35.18;101308.00;5254484;28;20353;-74
2022/08/25 10:27:47;;;;;;;4.63;3.78;;;;;;;28.87;35.84;101303.09;5262612;28;20025;-75
2022/08/25 10:30:35;;;;;;;5.03;2.92;;;;;;;28.82;35.80;101300.66;5262552;28;20025;-75
2022/08/25 10:33:37;;;;;;;4.72;2.70;;;;;;;28.95;35.30;101296.19;5263029;28;20079;-75
2022/08/25 10:36:31;;;;;;;3.45;3.15;;;;;;;28.97;35.46;101295.78;5262497;28;20056;-77
2022/08/25 10:39:03;;;;;;;3.65;2.70;;;;;;;28.95;33.94;101289.66;5251048;28;20033;-77
2022/08/25 10:42:08;;;;;;;2.88;2.30;;;;;;;29.01;34.20;101290.88;5260787;28;20035;-76
2022/08/25 10:45:44;;;;;;;2.88;2.35;;;;;;;28.99;33.89;101284.75;5263994;28;20071;-80
2022/08/25 10:48:54;;;;;;;4.95;2.92;;;;;;;28.97;33.80;101275.78;5261651;28;20029;-74
2022/08/25 10:51:44;;;;;;;6.13;2.92;;;;;;;29.03;35.03;101269.25;5262326;28;20044;-74
2022/08/25 10:54:47;;;;;;;8.38;7.57;;;;;;;29.07;36.47;101269.31;5263044;28;20164;-74
2022/08/25 10:57:33;;;;;;;4.60;3.58;;;;;;;29.16;36.07;101266.84;5253095;28;20021;-74
2022/08/25 11:00:08;;;;;;;5.75;3.13;;;;;;;29.19;36.69;101262.34;5245042;28;20052;-73
2022/08/25 11:03:10;;;;;;;7.70;3.67;;;;;;;29.30;36.85;101256.63;5262611;28;20017;-73
2022/08/25 11:06:01;;;;;;;5.30;3.20;;;;;;;29.33;37.26;101265.22;5262053;28;20119;-73
2022/08/25 11:08:41;;;;;;;5.30;3.28;;;;;;;29.53;37.46;101257.03;5261554;28;20032;-73
2022/08/25 11:11:24;;;;;;;9.63;3.72;;;;;;;29.59;37.39;101260.28;5261938;28;20102;-74
2022/08/25 11:14:13;;;;;;;6.65;3.38;;;;;;;29.74;36.20;101256.22;5256119;28;20027;-73
2022/08/25 11:17:09;;;;;;;5.28;2.83;;;;;;;29.71;36.08;101256.19;5257185;28;20396;-74
2022/08/25 11:19:47;;;;;;;4.53;3.05;;;;;;;29.72;35.93;101247.22;5254123;28;20048;-74
2022/08/25 11:22:28;;;;;;;8.55;2.90;;;;;;;29.77;36.38;101252.53;5241014;28;20057;-74
2022/08/25 11:25:29;;;;;;;5.20;3.30;;;;;;;29.88;35.95;101239.00;5240803;28;20365;-74
2022/08/25 11:28:17;;;;;;;6.25;3.08;;;;;;;29.97;35.89;101235.72;5241122;28;20128;-73
2022/08/25 11:30:51;;;;;;;7.40;3.20;;;;;;;30.03;34.86;101238.97;5245878;28;20087;-74
2022/08/25 11:33:24;;;;;;;5.70;3.00;;;;;;;30.05;34.62;101237.31;5257282;28;20395;-75
2022/08/25 11:36:01;;;;;;;6.65;3.67;;;;;;;30.18;34.31;101236.84;5241100;28;20284;-74
2022/08/25 11:38:53;;;;;;;5.90;2.85;;;;;;;30.23;35.02;101240.09;5249352;28;20025;-72
2022/08/25 11:41:49;;;;;;;5.90;3.22;;;;;;;30.24;34.09;101236.03;5262233;28;20476;-73
2022/08/25 11:44:50;;;;;;;3.95;3.03;;;;;;;30.24;32.77;101236.03;5262288;28;20029;-71
2022/08/25 11:47:40;;;;;;;5.78;2.88;;;;;;;30.33;33.02;101236.41;5259509;28;20037;-72
2022/08/25 11:50:32;;;;;;;6.18;3.05;;;;;;;30.38;33.29;101231.47;5241409;28;20036;-72
2022/08/25 11:53:29;;;;;;;9.02;3.17;;;;;;;30.46;33.34;101228.16;5240691;28;20025;-72
2022/08/25 11:56:04;;;;;;;5.88;3.10;;;;;;;30.62;33.06;101235.41;5241625;28;20068;-72
2022/08/25 11:58:40;;;;;;;3.38;2.50;;;;;;;30.74;33.05;101227.16;5254252;28;20405;-73
2022/08/25 12:01:39;;;;;;;5.53;3.03;;;;;;;30.87;32.94;101238.94;5260114;28;20045;-73
2022/08/25 12:04:13;;;;;;;4.47;2.90;;;;;;;30.60;31.92;101232.97;5261938;28;20061;-73
2022/08/25 12:07:10;;;;;;;5.20;3.17;;;;;;;30.60;33.41;101217.84;5240809;28;20030;-72
2022/08/25 12:09:50;;;;;;;4.85;3.70;;;;;;;30.64;33.48;101222.31;5240951;28;20044;-72
2022/08/25 12:13:05;;;;;;;4.88;3.55;;;;;;;30.74;33.53;101218.56;5257590;28;20029;-72
2022/08/25 12:15:42;;;;;;;5.22;3.50;;;;;;;31.06;32.12;101228.16;5217441;28;20084;-72
2022/08/25 12:18:22;;;;;;;3.53;2.88;;;;;;;30.84;31.41;101213.22;5217579;28;20438;-73
2022/08/25 12:20:53;;;;;;;4.82;3.13;;;;;;;30.90;31.74;101202.94;5232867;28;20321;-72
2022/08/25 12:23:30;;;;;;;3.65;2.63;;;;;;;30.95;31.29;101209.00;5241543;28;20443;-72
2022/08/25 12:26:29;;;;;;;7.03;3.17;;;;;;;31.13;31.83;101208.03;5251107;28;20499;-72
2022/08/25 12:29:14;;;;;;;5.18;3.15;;;;;;;31.44;31.70;101206.13;5260465;28;20087;-74
2022/08/25 12:31:51;;;;;;;4.03;2.83;;;;;;;31.19;30.48;101217.78;5261229;28;20063;-74
2022/08/25 12:35:00;;;;;;;5.20;3.45;;;;;;;31.36;31.58;101205.34;5261828;28;20020;-72
2022/08/25 12:37:31;;;;;;;7.78;2.90;;;;;;;31.30;30.73;101206.25;5261745;28;20166;-74
2022/08/25 12:40:05;;;;;;;4.88;2.85;;;;;;;31.45;29.72;101201.22;5255684;28;20462;-74
2022/08/25 12:42:42;;;;;;;4.05;3.67;;;;;;;31.36;30.66;101193.09;5240196;28;20044;-73
2022/08/25 12:45:19;;;;;;;4.30;2.88;;;;;;;31.54;29.74;101190.06;5241093;28;20472;-72
2022/08/25 12:47:53;;;;;;;6.00;3.40;;;;;;;31.76;29.38;101191.44;5275300;28;20051;-72
2022/08/25 12:50:46;;;;;;;10.30;9.00;;;;;;;31.77;29.90;101186.50;5268833;28;20029;-72
2022/08/25 12:53:25;;;;;;;7.97;3.38;;;;;;;31.79;29.17;101189.78;5245358;28;20112;-70
2022/08/25 12:56:01;;;;;;;5.78;3.30;;;;;;;31.92;28.83;101187.16;5247541;28;20078;-72
2022/08/25 12:59:06;;;;;;;7.70;4.40;;;;;;;31.95;28.77;101183.47;5265051;28;20033;-76
2022/08/25 13:02:26;;;;;;;5.80;2.80;;;;;;;31.99;29.49;101178.50;5257339;28;20106;-75
2022/08/25 13:05:22;;;;;;;4.85;3.00;;;;;;;32.13;28.26;101177.47;5255978;28;20091;-73
2022/08/25 13:08:15;;;;;;;5.45;3.08;;;;;;;32.24;28.98;101176.09;5263880;28;20079;-72
2022/08/25 13:11:33;;;;;;;5.03;3.35;;;;;;;32.33;28.53;101181.28;5264271;28;20041;-73
2022/08/25 13:14:18;;;;;;;4.95;2.90;;;;;;;32.33;28.17;101175.53;5241997;28;20451;-73
2022/08/25 13:16:58;;;;;;;3.42;3.00;;;;;;;32.37;28.04;101181.25;5264109;28;20115;-71
2022/08/25 13:19:29;;;;;;;10.02;8.07;;;;;;;32.42;27.45;101167.22;5265003;28;20082;-71
2022/08/25 13:22:11;;;;;;;8.27;4.22;;;;;;;32.30;27.29;101173.53;5264869;28;20076;-72
2022/08/25 13:24:45;;;;;;;4.65;2.75;;;;;;;32.38;26.87;101174.25;5264108;28;20029;-72
2022/08/25 13:27:25;;;;;;;5.45;2.92;;;;;;;32.38;27.92;101169.31;5264482;28;20021;-72
2022/08/25 13:29:58;;;;;;;4.20;2.88;;;;;;;32.50;27.99;101156.47;5258725;28;20068;-74
2022/08/25 13:32:34;;;;;;;3.78;2.78;;;;;;;32.53;29.23;101152.72;5242437;28;20384;-74
2022/08/25 13:35:27;;;;;;;4.82;3.13;;;;;;;32.74;28.36;101150.75;5244038;28;20407;-75
2022/08/25 13:38:12;;;;;;;7.97;3.28;;;;;;;32.74;28.18;101154.44;5242358;28;20037;-73
2022/08/25 13:40:43;;;;;;;4.07;2.90;;;;;;;32.44;27.42;101147.50;5243030;28;20033;-73
2022/08/25 13:43:15;;;;;;;55.35;50.63;;;;;;;32.34;28.14;101156.25;5243254;28;20030;-74
2022/08/25 13:45:48;;;;;;;6.00;3.63;;;;;;;32.36;29.06;101151.72;5258642;28;20037;-74
2022/08/25 13:48:36;;;;;;;5.35;4.78;;;;;;;32.60;28.44;101143.19;5258939;28;20021;-73
2022/08/25 13:51:17;;;;;;;6.78;3.40;;;;;;;32.68;27.92;101138.97;5264275;28;20029;-74
2022/08/25 13:53:58;;;;;;;7.70;3.00;;;;;;;32.73;28.36;101152.00;5263674;28;20108;-74
2022/08/25 13:56:36;;;;;;;5.45;3.28;;;;;;;32.88;27.75;101145.59;5264804;28;20032;-74
2022/08/25 13:59:35;;;;;;;5.18;3.25;;;;;;;32.97;28.02;101138.44;5263407;28;20035;-73
2022/08/25 14:02:11;;;;;;;5.63;3.17;;;;;;;33.01;26.99;101144.97;5263459;28;20381;-73
2022/08/25 14:04:47;;;;;;;3.63;3.13;;;;;;;32.85;27.59;101142.75;5252397;28;20056;-72
2022/08/25 14:07:19;;;;;;;5.28;3.63;;;;;;;32.99;27.67;101139.63;5242472;28;20031;-73
2022/08/25 14:10:00;;;;;;;5.75;3.83;;;;;;;33.09;26.98;101146.47;5243214;28;20033;-73
2022/08/25 14:12:39;;;;;;;7.10;2.90;;;;;;;33.21;27.13;101133.50;5243012;28;20052;-76
2022/08/25 14:15:11;;;;;;;7.72;4.88;;;;;;;33.30;27.41;101139.50;5256161;28;20488;-73
2022/08/25 14:17:47;;;;;;;5.63;4.95;;;;;;;33.43;27.13;101136.78;5263768;28;20145;-70
2022/08/25 14:20:26;;;;;;;5.82;3.92;;;;;;;33.47;26.72;101134.66;5262564;28;20077;-72
2022/08/25 14:23:01;;;;;;;4.47;2.55;;;;;;;33.42;26.54;101129.44;5242688;28;20025;-71
2022/08/25 14:25:34;;;;;;;5.28;2.95;;;;;;;33.42;26.71;101129.44;5242176;28;20095;-70
2022/08/25 14:28:11;;;;;;;7.65;3.15;;;;;;;33.42;26.32;101126.56;5240882;28;20021;-71
2022/08/25 14:30:51;;;;;;;3.70;2.85;;;;;;;33.46;26.72;101130.16;5243402;28;20043;-71
2022/08/25 14:33:27;;;;;;;6.32;3.45;;;;;;;33.48;26.83;101122.72;5258668;28;20036;-71
2022/08/25 14:36:01;;;;;;;4.68;2.92;;;;;;;33.58;26.64;101123.78;5262384;28;20029;-72
2022/08/25 14:38:34;;;;;;;4.43;2.92;;;;;;;33.37;27.03;101112.69;5247012;28;20396;-72
2022/08/25 14:41:05;;;;;;;3.97;3.33;;;;;;;33.47;27.66;101126.84;5242428;28;20029;-73
2022/08/25 14:43:37;;;;;;;4.40;2.88;;;;;;;33.17;26.99;101122.09;5248526;28;20028;-73
2022/08/25 14:46:16;;;;;;;3.30;3.00;;;;;;;33.05;27.09;101122.72;5262662;28;20091;-73
2022/08/25 14:48:54;;;;;;;5.72;3.72;;;;;;;33.10;27.47;101119.34;5262678;28;20017;-73
2022/08/25 14:51:27;;;;;;;4.15;3.08;;;;;;;33.11;28.22;101109.50;5261961;28;20039;-74
2022/08/25 14:54:02;;;;;;;4.63;3.10;;;;;;;33.19;27.51;101115.94;5262737;28;20025;-75
2022/08/25 14:56:33;;;;;;;4.63;3.30;;;;;;;33.06;27.83;101107.94;5243097;28;20033;-73
2022/08/25 14:59:04;;;;;;;22.23;20.13;;;;;;;32.99;27.34;101116.66;5241660;28;20087;-72
2022/08/25 15:01:36;;;;;;;4.32;3.20;;;;;;;32.83;27.85;101105.88;5258160;28;20127;-73
2022/08/25 15:04:15;;;;;;;5.38;3.15;;;;;;;32.56;28.25;101108.78;5254460;28;20500;-73
2022/08/25 15:06:53;;;;;;;5.78;3.47;;;;;;;32.53;27.82;101108.88;5263149;28;20092;-73
2022/08/25 15:09:24;;;;;;;13.45;4.65;;;;;;;32.51;27.82;101108.47;5261219;28;20064;-73
2022/08/25 15:11:56;;;;;;;11.00;9.90;;;;;;;32.52;28.37;101118.72;5257276;28;20053;-74
2022/08/25 15:14:28;;;;;;;6.18;4.18;;;;;;;32.38;28.68;101114.78;5248669;28;20055;-73
2022/08/25 15:17:00;;;;;;;5.05;3.25;;;;;;;32.21;28.31;101107.28;5261850;28;20017;-73
2022/08/25 15:19:33;;;;;;;6.15;3.28;;;;;;;32.09;28.95;101108.69;5262499;28;20021;-73
2022/08/25 15:22:05;;;;;;;7.40;3.10;;;;;;;32.33;28.52;101100.94;5262142;28;20075;-73
2022/08/25 15:24:36;;;;;;;7.65;3.25;;;;;;;32.25;28.45;101105.16;5261366;28;20025;-73
2022/08/25 15:27:08;;;;;;;5.45;3.47;;;;;;;32.14;27.96;101095.94;5243614;28;20034;-73
2022/08/25 15:29:40;;;;;;;12.05;10.82;;;;;;;32.16;28.06;101097.13;5242105;28;20040;-73
2022/08/25 15:32:11;;;;;;;37.47;34.08;;;;;;;32.20;29.04;101091.31;5240808;28;20457;-73
2022/08/25 15:34:44;;;;;;;6.93;4.97;;;;;;;32.02;27.95;101098.13;5241945;28;20064;-73
2022/08/25 15:37:16;;;;;;;6.50;2.80;;;;;;;31.92;28.88;101093.31;5241332;28;20022;-72
2022/08/25 15:39:48;;;;;;;5.95;3.00;;;;;;;31.97;28.03;101095.75;5240483;28;20079;-72
2022/08/25 15:42:19;;;;;;;5.40;2.83;;;;;;;31.80;28.38;101093.91;5248485;28;20025;-72
2022/08/25 15:44:50;;;;;;;4.68;3.55;;;;;;;31.91;28.20;101091.72;5260604;28;20526;-72
2022/08/25 15:47:22;;;;;;;6.15;3.17;;;;;;;31.99;28.82;101086.72;5245019;28;20061;-72
2022/08/25 15:50:04;;;;;;;4.47;3.15;;;;;;;31.94;28.22;101088.00;5241571;28;20097;-72
2022/08/25 15:52:35;;;;;;;5.07;2.85;;;;;;;32.01;28.62;101098.59;5240190;28;20436;-73
2022/08/25 15:55:08;;;;;;;3.72;2.80;;;;;;;32.02;28.63;101088.72;5261608;28;20025;-75
2022/08/25 15:57:40;;;;;;;7.13;3.53;;;;;;;32.09;28.85;101093.56;5261872;28;20036;-74
2022/08/25 16:00:12;;;;;;;10.30;9.23;;;;;;;32.10;28.93;101087.34;5259938;28;20041;-75
2022/08/25 16:02:44;;;;;;;4.97;3.33;;;;;;;31.81;28.41;101084.06;5260921;28;20116;-75
2022/08/25 16:05:15;;;;;;;4.95;3.00;;;;;;;31.92;28.94;101081.84;5262012;28;20103;-75
2022/08/25 16:07:47;;;;;;;4.13;3.58;;;;;;;31.86;28.81;101083.59;5261242;28;20017;-73
2022/08/25 16:10:19;;;;;;;6.35;3.00;;;;;;;31.84;28.70;101081.16;5261904;28;20386;-71
2022/08/25 16:12:50;;;;;;;6.45;3.00;;;;;;;31.92;29.10;101087.59;5261056;28;20056;-71
2022/08/25 16:15:22;;;;;;;5.13;3.22;;;;;;;32.00;28.77;101077.66;5260979;28;20021;-73
2022/08/25 16:17:53;;;;;;;4.80;3.10;;;;;;;31.96;29.57;101085.53;5254479;28;20476;-72
2022/08/25 16:20:25;;;;;;;4.40;3.28;;;;;;;31.91;28.83;101080.25;5249407;28;20036;-72
2022/08/25 16:22:59;;;;;;;3.95;3.15;;;;;;;32.02;29.01;101075.19;5264899;28;20017;-71
2022/08/25 16:25:30;;;;;;;5.57;3.38;;;;;;;31.80;29.80;101074.66;5265879;28;20025;-72
2022/08/25 16:28:02;;;;;;;4.65;3.17;;;;;;;31.90;28.84;101078.59;5265369;28;20128;-71
2022/08/25 16:30:33;;;;;;;3.28;2.95;;;;;;;31.75;28.60;101080.88;5266013;28;20137;-71
2022/08/25 16:33:06;;;;;;;4.40;3.80;;;;;;;31.84;28.92;101077.47;5254670;28;20029;-72
2022/08/25 16:35:37;;;;;;;5.45;4.20;;;;;;;31.92;28.82;101081.84;5244998;28;20075;-74
2022/08/25 16:38:11;;;;;;;5.75;2.55;;;;;;;31.91;28.95;101077.38;5261090;28;20017;-73
2022/08/25 16:40:44;;;;;;;5.90;3.42;;;;;;;31.77;29.51;101071.84;5265525;28;20405;-71
2022/08/25 16:43:16;;;;;;;40.45;37.13;;;;;;;31.78;29.20;101070.59;5264736;28;20075;-71
2022/08/25 16:45:56;;;;;;;6.38;4.25;;;;;;;31.82;29.21;101072.16;5265482;28;20365;-70
2022/08/25 16:48:30;;;;;;;5.50;3.42;;;;;;;31.79;29.26;101077.97;5263750;28;20055;-71
2022/08/25 16:51:10;;;;;;;4.28;3.40;;;;;;;31.58;29.16;101079.06;5265626;28;20058;-75
2022/08/25 16:56:34;;;;;;;6.32;3.33;;;;;;;31.61;30.39;101076.13;5244518;28;20482;-76
2022/08/25 16:59:06;;;;;;;9.63;4.05;;;;;;;31.60;29.74;101063.06;5255949;28;20021;-76
2022/08/25 17:01:39;;;;;;;5.40;3.25;;;;;;;31.67;30.29;101069.94;5264828;28;20071;-75
2022/08/25 17:04:11;;;;;;;3.63;2.63;;;;;;;31.52;30.82;101070.13;5264320;28;20071;-72
2022/08/25 17:06:43;;;;;;;4.85;3.15;;;;;;;31.40;30.91;101074.38;5264968;28;20571;-74
2022/08/25 17:09:14;;;;;;;5.10;2.90;;;;;;;31.28;30.85;101071.22;5264408;28;20913;-74
2022/08/25 17:11:47;;;;;;;3.83;3.22;;;;;;;31.36;31.00;101069.88;5252414;28;20035;-73
2022/08/25 17:14:21;;;;;;;5.43;3.85;;;;;;;31.30;31.06;101063.00;5244088;28;20021;-74
2022/08/25 17:16:53;;;;;;;6.85;3.13;;;;;;;31.13;31.70;101059.91;5258651;28;20017;-73
2022/08/25 17:19:25;;;;;;;4.57;3.35;;;;;;;31.09;32.18;101062.03;5265347;28;20407;-75
2022/08/25 17:21:57;;;;;;;10.65;3.50;;;;;;;31.05;32.46;101049.78;5262092;28;20033;-74
2022/08/25 17:24:28;;;;;;;5.63;3.50;;;;;;;30.99;32.43;101045.78;5243496;28;20025;-74
2022/08/25 17:27:00;;;;;;;4.43;3.58;;;;;;;30.96;32.77;101043.75;5244492;28;20393;-73
2022/08/25 17:29:33;;;;;;;3.80;3.10;;;;;;;30.86;32.57;101042.63;5262577;28;20025;-73
2022/08/25 17:32:04;;;;;;;8.55;3.58;;;;;;;30.80;32.39;101055.75;5260059;28;20021;-74
